createdAt,value
2019-01-25T00:00:30.317Z,12.77
2019-01-25T00:02:59.208Z,13.60
2019-01-25T00:05:28.099Z,12.63
2019-01-25T00:07:57.091Z,13.13
2019-01-25T00:10:25.986Z,12.73
2019-01-25T00:12:54.752Z,14.47
2019-01-25T00:15:23.660Z,12.07
2019-01-25T00:17:52.551Z,12.60
2019-01-25T00:20:21.339Z,12.30
2019-01-25T00:22:50.335Z,13.07
2019-01-25T00:25:19.324Z,12.07
2019-01-25T00:27:48.318Z,13.07
2019-01-25T00:30:19.063Z,13.53
2019-01-25T00:32:47.942Z,13.30
2019-01-25T00:35:16.926Z,12.13
2019-01-25T00:37:45.929Z,13.40
2019-01-25T00:40:20.246Z,12.97
2019-01-25T00:42:49.239Z,11.20
2019-01-25T00:45:18.388Z,12.20
2019-01-25T00:47:47.225Z,11.33
2019-01-25T00:50:22.667Z,12.50
2019-01-25T00:52:51.559Z,11.57
2019-01-25T00:55:20.622Z,12.30
2019-01-25T00:57:49.442Z,13.40
2019-01-25T01:00:21.146Z,13.23
2019-01-25T01:02:50.193Z,12.57
2019-01-25T01:05:19.699Z,13.43
2019-01-25T01:07:50.952Z,13.03
2019-01-25T01:10:20.245Z,12.30
2019-01-25T01:12:49.136Z,11.80
2019-01-25T01:15:18.539Z,12.30
2019-01-25T01:17:47.534Z,10.47
2019-01-25T01:20:20.724Z,11.53
2019-01-25T01:22:50.226Z,12.13
2019-01-25T01:25:19.537Z,10.20
2019-01-25T01:27:48.624Z,9.17
2019-01-25T01:30:20.276Z,9.90
2019-01-25T01:32:49.270Z,8.47
2019-01-25T01:35:18.468Z,9.73
2019-01-25T01:37:48.283Z,9.57
2019-01-25T01:40:21.942Z,9.17
2019-01-25T01:42:50.263Z,10.13
2019-01-25T01:45:19.670Z,9.47
2019-01-25T01:47:48.863Z,9.40
2019-01-25T01:50:20.828Z,9.93
2019-01-25T01:52:50.328Z,10.23
2019-01-25T01:55:19.220Z,9.90
2019-01-25T01:57:48.111Z,10.07
2019-01-25T02:00:19.972Z,10.10
2019-01-25T02:02:49.063Z,9.07
2019-01-25T02:05:18.265Z,10.80
2019-01-25T02:07:47.105Z,12.93
2019-01-25T02:10:18.802Z,15.17
2019-01-25T02:12:47.598Z,13.87
2019-01-25T02:15:18.618Z,13.63
2019-01-25T02:17:48.000Z,12.63
2019-01-25T02:20:25.741Z,12.00
2019-01-25T02:22:54.628Z,14.10
2019-01-25T02:25:23.721Z,13.73
2019-01-25T02:27:52.718Z,12.03
2019-01-25T02:30:24.090Z,10.93
2019-01-25T02:32:53.267Z,11.80
2019-01-25T02:35:22.256Z,13.20
2019-01-25T02:37:51.161Z,11.80
2019-01-25T02:40:22.697Z,11.27
2019-01-25T02:42:51.587Z,13.27
2019-01-25T02:45:20.483Z,14.43
2019-01-25T02:47:49.709Z,16.30
2019-01-25T02:50:20.110Z,13.77
2019-01-25T02:52:49.098Z,13.70
2019-01-25T02:55:18.733Z,14.70
2019-01-25T02:57:47.800Z,20.90
2019-01-25T03:00:22.119Z,16.33
2019-01-25T03:02:51.274Z,15.10
2019-01-25T03:05:21.844Z,13.90
2019-01-25T03:07:51.229Z,12.07
2019-01-25T03:10:28.542Z,11.67
2019-01-25T03:12:52.673Z,12.17
2019-01-25T03:15:24.063Z,12.43
2019-01-25T03:17:53.056Z,11.83
2019-01-25T03:20:22.253Z,10.73
2019-01-25T03:22:51.143Z,11.57
2019-01-25T03:25:22.582Z,11.77
2019-01-25T03:27:51.383Z,11.13
2019-01-25T03:30:21.874Z,11.73
2019-01-25T03:32:51.010Z,11.70
2019-01-25T03:35:21.576Z,11.27
2019-01-25T03:37:51.004Z,12.47
2019-01-25T03:40:22.799Z,12.50
2019-01-25T03:42:51.790Z,12.90
2019-01-25T03:45:20.850Z,13.30
2019-01-25T03:47:49.986Z,11.80
2019-01-25T03:50:24.813Z,11.53
2019-01-25T03:52:53.806Z,10.87
2019-01-25T03:55:22.903Z,10.97
2019-01-25T03:57:51.795Z,10.50
2019-01-25T04:00:25.493Z,9.50
2019-01-25T04:02:54.491Z,10.03
2019-01-25T04:05:23.481Z,10.13
2019-01-25T04:07:52.580Z,11.60
2019-01-25T04:10:23.464Z,10.50
2019-01-25T04:12:52.311Z,10.83
2019-01-25T04:15:24.165Z,10.90
2019-01-25T04:17:52.953Z,10.80
2019-01-25T04:20:23.268Z,11.63
2019-01-25T04:22:52.539Z,11.07
2019-01-25T04:25:22.828Z,11.57
2019-01-25T04:27:52.607Z,11.10
2019-01-25T04:30:32.974Z,10.90
2019-01-25T04:33:02.271Z,12.40
2019-01-25T04:35:31.158Z,13.50
2019-01-25T04:38:00.458Z,11.53
2019-01-25T04:40:29.347Z,12.83
2019-01-25T04:42:58.239Z,13.13
2019-01-25T04:45:27.131Z,14.50
2019-01-25T04:47:56.020Z,10.43
2019-01-25T04:50:25.633Z,11.27
2019-01-25T04:52:55.209Z,10.33
2019-01-25T04:55:26.076Z,11.77
2019-01-25T04:57:56.499Z,11.43
2019-01-25T05:00:25.592Z,11.83
2019-01-25T05:02:56.672Z,12.73
2019-01-25T05:05:25.964Z,12.53
2019-01-25T05:08:03.636Z,13.23
2019-01-25T05:10:32.523Z,13.37
2019-01-25T05:13:01.416Z,13.53
2019-01-25T05:15:30.304Z,16.30
2019-01-25T05:17:59.091Z,14.63
2019-01-25T05:20:28.193Z,15.57
2019-01-25T05:22:59.622Z,15.03
2019-01-25T05:25:28.941Z,16.30
2019-01-25T05:27:58.032Z,13.60
2019-01-25T05:30:27.540Z,28.50
2019-01-25T05:32:56.428Z,79.20
2019-01-25T05:35:26.961Z,50.07
2019-01-25T05:37:55.851Z,19.33
2019-01-25T05:40:26.458Z,20.07
2019-01-25T05:42:55.267Z,11.70
2019-01-25T05:45:24.169Z,18.17
2019-01-25T05:47:53.052Z,17.33
2019-01-25T05:50:21.941Z,25.97
2019-01-25T05:52:50.836Z,68.47
2019-01-25T05:55:21.736Z,38.87
2019-01-25T05:57:50.759Z,35.50
2019-01-25T06:00:27.230Z,21.20
2019-01-25T06:02:56.121Z,17.97
2019-01-25T06:05:25.012Z,18.63
2019-01-25T06:07:53.901Z,20.10
2019-01-25T06:10:22.794Z,14.73
2019-01-25T06:12:53.321Z,16.00
2019-01-25T06:15:25.284Z,23.00
2019-01-25T06:17:57.246Z,20.20
2019-01-25T06:20:26.136Z,21.07
2019-01-25T06:22:56.561Z,24.53
2019-01-25T06:25:25.499Z,24.87
2019-01-25T06:27:54.550Z,44.47
2019-01-25T06:30:23.441Z,22.23
2019-01-25T06:32:52.330Z,30.33
2019-01-25T06:35:21.323Z,20.83
2019-01-25T06:37:50.421Z,17.07
2019-01-25T06:40:19.410Z,17.53
2019-01-25T06:42:48.300Z,16.27
2019-01-25T06:45:17.396Z,16.77
2019-01-25T06:47:46.287Z,16.43
2019-01-25T06:50:15.175Z,17.77
2019-01-25T06:52:44.170Z,19.43
2019-01-25T06:55:13.266Z,18.80
2019-01-25T06:57:49.734Z,17.17
2019-01-25T07:00:20.671Z,16.73
2019-01-25T07:02:49.563Z,17.97
2019-01-25T07:05:18.455Z,16.73
2019-01-25T07:07:48.059Z,17.43
2019-01-25T07:10:21.047Z,23.87
2019-01-25T07:12:49.937Z,23.17
2019-01-25T07:15:20.364Z,28.37
2019-01-25T07:17:49.151Z,37.03
2019-01-25T07:20:18.918Z,23.17
2019-01-25T07:22:47.752Z,20.53
2019-01-25T07:25:16.950Z,22.90
2019-01-25T07:27:45.943Z,27.13
2019-01-25T07:30:16.573Z,24.37
2019-01-25T07:32:45.705Z,24.23
2019-01-25T07:35:15.021Z,25.90
2019-01-25T07:37:44.115Z,23.70
2019-01-25T07:40:13.163Z,25.37
2019-01-25T07:42:42.061Z,20.87
2019-01-25T07:45:13.511Z,23.40
2019-01-25T07:47:42.399Z,21.83
2019-01-25T07:50:12.525Z,23.97
2019-01-25T07:52:41.431Z,22.20
2019-01-25T07:55:12.098Z,19.53
2019-01-25T07:57:41.377Z,20.07
2019-01-25T08:00:12.901Z,20.37
2019-01-25T08:02:41.785Z,17.30
2019-01-25T08:05:11.112Z,19.83
2019-01-25T08:07:40.198Z,17.73
2019-01-25T08:10:18.281Z,19.07
2019-01-25T08:12:47.187Z,21.23
2019-01-25T08:15:21.053Z,21.37
2019-01-25T08:17:50.105Z,21.37
2019-01-25T08:20:18.977Z,18.33
2019-01-25T08:22:47.897Z,16.83
2019-01-25T08:25:17.935Z,19.47
2019-01-25T08:27:46.760Z,21.00
2019-01-25T08:30:21.180Z,21.40
2019-01-25T08:32:50.550Z,16.63
2019-01-25T08:35:19.634Z,19.27
2019-01-25T08:37:48.581Z,19.83
2019-01-25T09:04:21.926Z,25.10
2019-01-25T09:06:50.818Z,18.90
2019-01-25T09:09:19.701Z,20.00
2019-01-25T09:11:48.688Z,23.13
2019-01-25T09:14:17.574Z,21.17
2019-01-25T09:16:46.566Z,18.73
2019-01-25T09:19:15.469Z,22.80
2019-01-25T09:21:44.348Z,22.50
2019-01-25T09:24:13.239Z,21.87
2019-01-25T09:26:42.230Z,21.03
2019-01-25T09:29:11.222Z,21.63
2019-01-25T09:31:40.227Z,23.03
2019-01-25T09:34:09.168Z,21.93
2019-01-25T09:36:37.999Z,21.37
2019-01-25T09:39:08.615Z,19.00
2019-01-25T09:41:39.520Z,20.37
2019-01-25T09:44:08.460Z,23.57
2019-01-25T09:46:37.353Z,22.10
2019-01-25T09:49:06.445Z,19.83
2019-01-25T09:51:35.338Z,20.17
2019-01-25T09:54:04.432Z,19.97
2019-01-25T09:56:33.734Z,18.50
2019-01-25T09:59:02.632Z,22.10
2019-01-25T10:01:31.510Z,20.00
2019-01-25T10:04:00.402Z,21.00
2019-01-25T10:06:29.295Z,22.40
2019-01-25T10:08:58.096Z,20.17
2019-01-25T10:11:27.382Z,21.00
2019-01-25T10:13:56.276Z,19.63
2019-01-25T10:16:25.163Z,22.67
2019-01-25T10:18:54.055Z,20.20
2019-01-25T10:21:22.945Z,20.00
2019-01-25T10:23:51.837Z,19.47
2019-01-25T10:26:20.726Z,20.03
2019-01-25T10:28:49.622Z,21.13
2019-01-25T10:31:18.509Z,21.27
2019-01-25T10:33:47.399Z,21.30
2019-01-25T10:36:16.289Z,22.63
2019-01-25T10:38:45.180Z,26.97
2019-01-25T10:41:14.071Z,21.20
2019-01-25T10:43:42.859Z,23.30
2019-01-25T10:46:11.747Z,26.07
2019-01-25T10:48:40.740Z,22.83
2019-01-25T10:51:09.634Z,23.30
2019-01-25T10:53:38.521Z,25.97
2019-01-25T10:56:07.826Z,24.30
2019-01-25T10:58:36.716Z,26.60
2019-01-25T11:01:05.708Z,25.27
2019-01-25T11:03:34.697Z,22.30
2019-01-25T11:06:03.682Z,24.60
2019-01-25T11:08:32.974Z,23.10
2019-01-25T11:11:01.986Z,25.63
2019-01-25T11:13:30.878Z,23.23
2019-01-25T11:15:59.770Z,24.27
2019-01-25T11:18:28.863Z,21.90
2019-01-25T11:20:57.755Z,24.50
2019-01-25T11:23:26.646Z,24.87
2019-01-25T11:25:55.638Z,21.67
2019-01-25T11:28:24.529Z,23.33
2019-01-25T11:30:53.416Z,21.23
2019-01-25T11:33:22.383Z,22.93
2019-01-25T11:35:51.212Z,24.47
2019-01-25T11:38:20.089Z,29.53
2019-01-25T11:40:48.982Z,28.30
2019-01-25T11:43:17.870Z,25.80
2019-01-25T11:45:46.762Z,22.40
2019-01-25T11:48:15.652Z,22.10
2019-01-25T11:50:44.542Z,24.53
2019-01-25T11:53:13.433Z,23.97
2019-01-25T11:55:42.835Z,27.90
2019-01-25T11:58:11.831Z,25.80
2019-01-25T12:00:42.357Z,26.13
2019-01-25T12:03:11.248Z,27.47
2019-01-25T12:05:40.139Z,26.73
2019-01-25T12:08:09.234Z,27.03
2019-01-25T12:10:38.533Z,30.27
2019-01-25T12:13:07.527Z,30.67
2019-01-25T12:15:36.520Z,30.20
2019-01-25T12:18:06.158Z,23.07
2019-01-25T12:20:35.845Z,27.63
2019-01-25T12:23:05.036Z,34.77
2019-01-25T12:25:33.936Z,28.50
2019-01-25T12:28:05.396Z,27.03
2019-01-25T12:30:38.794Z,26.57
2019-01-25T12:33:08.178Z,26.53
2019-01-25T12:35:39.537Z,27.20
2019-01-25T12:38:08.518Z,26.10
2019-01-25T12:40:41.782Z,24.80
2019-01-25T12:43:08.051Z,23.73
2019-01-25T12:45:36.928Z,23.07
2019-01-25T12:48:06.128Z,26.97
2019-01-25T12:50:40.753Z,28.53
2019-01-25T12:53:11.588Z,28.23
2019-01-25T12:55:40.481Z,27.63
2019-01-25T12:58:09.573Z,27.83
2019-01-25T13:00:40.410Z,24.27
2019-01-25T13:03:09.405Z,23.43
2019-01-25T13:05:38.402Z,27.23
2019-01-25T13:08:07.330Z,28.57
2019-01-25T13:10:36.176Z,28.53
2019-01-25T13:13:05.376Z,26.87
2019-01-25T13:15:34.575Z,25.03
2019-01-25T13:18:03.568Z,27.57
2019-01-25T13:20:34.112Z,27.03
2019-01-25T13:23:03.396Z,30.53
2019-01-25T13:25:32.303Z,34.17
2019-01-25T13:28:06.141Z,30.30
2019-01-25T13:30:35.187Z,30.83
2019-01-25T13:33:04.397Z,29.00
2019-01-25T13:35:33.248Z,28.33
2019-01-25T13:38:03.292Z,26.10
2019-01-25T13:40:32.187Z,28.50
2019-01-25T13:43:00.983Z,27.23
2019-01-25T13:45:30.172Z,29.13
2019-01-25T13:47:59.059Z,25.57
2019-01-25T13:50:51.302Z,24.93
2019-01-25T13:53:20.293Z,27.83
2019-01-25T13:55:49.695Z,28.60
2019-01-25T13:58:18.586Z,25.43
2019-01-25T14:00:47.481Z,27.83
2019-01-25T14:03:16.365Z,29.30
2019-01-25T14:05:45.255Z,27.57
2019-01-25T14:08:14.177Z,27.50
2019-01-25T14:10:43.038Z,24.90
2019-01-25T14:13:11.928Z,27.77
2019-01-25T14:15:40.922Z,28.60
2019-01-25T14:18:09.815Z,27.63
2019-01-25T14:20:38.702Z,25.93
2019-01-25T14:23:07.490Z,28.17
2019-01-25T14:25:36.416Z,27.73
2019-01-25T14:28:05.829Z,31.40
2019-01-25T14:30:37.242Z,29.90
2019-01-25T14:33:06.818Z,28.73
2019-01-25T14:35:35.936Z,27.63
2019-01-25T14:38:05.622Z,23.57
2019-01-25T14:40:34.444Z,27.87
2019-01-25T14:43:03.327Z,31.97
2019-01-25T14:45:32.422Z,38.10
2019-01-25T14:48:01.415Z,36.23
2019-01-25T14:50:32.314Z,30.10
2019-01-25T14:53:01.493Z,33.20
2019-01-25T14:55:30.457Z,28.20
2019-01-25T14:57:59.334Z,27.97
2019-01-25T15:00:28.325Z,29.30
2019-01-25T15:02:57.218Z,35.50
2019-01-25T15:05:26.110Z,37.87
2019-01-25T15:07:54.997Z,35.20
2019-01-25T15:10:25.191Z,28.77
2019-01-25T15:12:56.370Z,29.40
2019-01-25T15:15:25.461Z,28.40
2019-01-25T15:17:54.714Z,37.57
2019-01-25T15:20:25.968Z,40.83
2019-01-25T15:22:54.791Z,41.27
2019-01-25T15:25:23.682Z,37.03
2019-01-25T15:27:52.776Z,38.33
2019-01-25T15:30:24.126Z,42.30
2019-01-25T15:32:53.018Z,35.80
2019-01-25T15:35:22.727Z,34.20
2019-01-25T15:37:51.617Z,39.20
2019-01-25T15:40:22.116Z,36.10
2019-01-25T15:42:51.041Z,32.47
2019-01-25T15:45:21.020Z,37.53
2019-01-25T15:47:49.859Z,36.67
2019-01-25T15:50:30.208Z,47.60
2019-01-25T15:52:59.094Z,42.07
2019-01-25T15:55:28.494Z,39.53
2019-01-25T15:57:57.621Z,38.93
2019-01-25T16:00:28.212Z,39.43
2019-01-25T16:02:57.216Z,41.50
2019-01-25T16:05:26.622Z,40.87
2019-01-25T16:07:55.711Z,38.13
2019-01-25T16:10:24.603Z,37.60
2019-01-25T16:12:54.208Z,34.23
2019-01-25T16:15:25.303Z,37.50
2019-01-25T16:17:54.759Z,34.87
2019-01-25T16:20:24.208Z,36.60
2019-01-25T16:22:54.898Z,41.80
2019-01-25T16:25:26.486Z,41.37
2019-01-25T16:27:55.438Z,44.20
2019-01-25T16:30:26.888Z,39.80
2019-01-25T16:32:57.418Z,42.90
2019-01-25T16:35:26.307Z,42.13
2019-01-25T16:37:55.199Z,47.63
2019-01-25T16:40:29.003Z,41.47
2019-01-25T16:42:57.895Z,40.83
2019-01-25T16:45:29.651Z,40.57
2019-01-25T16:47:58.543Z,35.63
2019-01-25T16:50:27.439Z,35.53
2019-01-25T16:52:56.327Z,40.73
2019-01-25T16:55:25.316Z,41.13
2019-01-25T16:57:54.619Z,43.63
2019-01-25T17:00:29.038Z,37.87
2019-01-25T17:02:57.928Z,42.07
2019-01-25T17:05:27.336Z,40.03
2019-01-25T17:07:56.244Z,46.97
2019-01-25T17:10:25.319Z,41.47
2019-01-25T17:12:54.514Z,48.03
2019-01-25T17:15:23.711Z,41.90
2019-01-25T17:17:52.604Z,38.03
2019-01-25T17:20:28.966Z,46.53
2019-01-25T17:22:58.036Z,38.10
2019-01-25T17:25:26.856Z,33.90
2019-01-25T17:27:55.746Z,40.10
2019-01-25T17:30:35.940Z,44.70
2019-01-25T17:33:04.891Z,41.57
2019-01-25T17:35:34.089Z,33.93
2019-01-25T17:38:03.594Z,38.43
2019-01-25T17:40:46.374Z,33.40
2019-01-25T17:43:12.014Z,33.80
2019-01-25T17:45:41.018Z,44.53
2019-01-25T17:48:10.213Z,32.13
2019-01-25T17:50:39.106Z,35.10
2019-01-25T17:53:07.997Z,32.30
2019-01-25T17:55:36.886Z,33.80
2019-01-25T17:58:08.031Z,32.07
2019-01-25T18:00:38.150Z,33.07
2019-01-25T18:03:07.449Z,42.60
2019-01-25T18:05:36.345Z,36.93
2019-01-25T18:08:05.538Z,44.97
2019-01-25T18:10:34.839Z,38.73
2019-01-25T18:13:03.933Z,44.63
2019-01-25T18:15:32.925Z,56.83
2019-01-25T18:18:01.827Z,42.40
2019-01-25T18:20:30.707Z,33.50
2019-01-25T18:22:59.597Z,42.13
2019-01-25T18:25:40.368Z,36.83
2019-01-25T18:28:14.786Z,40.43
2019-01-25T18:30:46.525Z,31.83
2019-01-25T18:33:15.334Z,41.37
2019-01-25T18:35:44.134Z,31.90
2019-01-25T18:38:13.011Z,40.47
2019-01-25T18:40:41.904Z,40.37
2019-01-25T18:43:10.797Z,41.57
2019-01-25T18:45:39.786Z,36.67
2019-01-25T18:48:08.676Z,40.10
2019-01-25T18:50:37.566Z,39.73
2019-01-25T18:53:06.576Z,36.73
2019-01-25T18:55:35.655Z,46.43
2019-01-25T18:58:04.756Z,37.07
2019-01-25T19:00:33.640Z,41.27
2019-01-25T19:03:02.660Z,41.13
2019-01-25T19:05:31.523Z,40.10
2019-01-25T19:08:00.414Z,38.40
2019-01-25T19:10:30.197Z,34.00
2019-01-25T19:12:59.119Z,35.60
2019-01-25T19:15:31.907Z,37.00
2019-01-25T19:18:00.891Z,40.33
2019-01-25T19:20:29.987Z,38.50
2019-01-25T19:22:58.878Z,36.73
2019-01-25T19:25:27.771Z,39.60
2019-01-25T19:27:56.660Z,38.40
2019-01-25T19:30:28.109Z,39.53
2019-01-25T19:32:57.101Z,31.60
2019-01-25T19:35:26.000Z,30.83
2019-01-25T19:37:55.091Z,32.60
2019-01-25T19:40:29.687Z,37.27
2019-01-25T19:42:58.607Z,47.73
2019-01-25T19:45:27.527Z,32.87
2019-01-25T19:47:56.384Z,36.90
2019-01-25T19:50:25.377Z,31.57
2019-01-25T19:52:54.371Z,32.30
2019-01-25T19:55:25.821Z,36.50
2019-01-25T19:57:55.012Z,33.83
2019-01-25T20:00:32.818Z,36.77
2019-01-25T20:03:03.346Z,29.97
2019-01-25T20:05:32.953Z,36.27
2019-01-25T20:08:01.995Z,38.33
2019-01-25T20:10:30.838Z,33.67
2019-01-25T20:12:59.738Z,37.47
2019-01-25T20:15:29.035Z,35.23
2019-01-25T20:17:57.917Z,29.03
2019-01-25T20:20:31.928Z,31.37
2019-01-25T20:23:01.025Z,34.80
2019-01-25T20:25:29.914Z,34.47
2019-01-25T20:27:59.112Z,33.00
2019-01-25T20:30:32.901Z,28.10
2019-01-25T20:33:03.194Z,33.30
2019-01-25T20:35:34.386Z,28.60
2019-01-25T20:38:03.491Z,29.53
2019-01-25T20:40:32.578Z,31.03
2019-01-25T20:43:01.671Z,31.40
2019-01-25T20:45:33.265Z,32.93
2019-01-25T20:48:02.320Z,28.93
2019-01-25T20:50:33.566Z,29.17
2019-01-25T20:53:03.227Z,34.13
2019-01-25T20:55:32.372Z,32.67
2019-01-25T20:58:01.362Z,28.87
2019-01-25T21:00:33.127Z,31.50
2019-01-25T21:03:02.222Z,33.77
2019-01-25T21:05:31.413Z,36.53
2019-01-25T21:08:00.307Z,24.00
2019-01-25T21:10:29.400Z,33.53
2019-01-25T21:12:58.392Z,31.67
2019-01-25T21:15:35.373Z,30.03
2019-01-25T21:18:01.498Z,29.20
2019-01-25T21:20:33.158Z,26.73
2019-01-25T21:23:02.148Z,29.43
2019-01-25T21:25:31.449Z,29.80
2019-01-25T21:28:00.445Z,27.17
2019-01-25T21:30:31.897Z,32.93
2019-01-25T21:33:00.995Z,24.13
2019-01-25T21:35:29.878Z,25.17
2019-01-25T21:37:58.866Z,28.70
2019-01-25T21:40:30.121Z,25.93
2019-01-25T21:42:59.025Z,25.80
2019-01-25T21:45:30.346Z,26.10
2019-01-25T21:47:59.243Z,32.17
2019-01-25T21:50:33.459Z,25.97
2019-01-25T21:53:02.759Z,33.70
2019-01-25T21:55:31.649Z,20.90
2019-01-25T21:58:05.443Z,24.57
2019-01-25T22:00:33.515Z,30.70
2019-01-25T22:03:02.418Z,21.87
2019-01-25T22:05:31.309Z,22.03
2019-01-25T22:08:00.404Z,20.97
2019-01-25T22:10:34.518Z,21.00
2019-01-25T22:13:03.815Z,20.43
2019-01-25T22:15:32.808Z,17.40
2019-01-25T22:18:01.698Z,15.83
2019-01-25T22:20:31.307Z,20.57
2019-01-25T22:23:00.198Z,18.37
2019-01-25T22:25:29.087Z,19.80
2019-01-25T22:27:58.286Z,18.23
2019-01-25T22:30:28.765Z,18.50
2019-01-25T22:32:57.607Z,17.80
2019-01-25T22:35:27.111Z,17.37
2019-01-25T22:37:56.200Z,18.00
2019-01-25T22:40:27.086Z,14.43
2019-01-25T22:42:56.647Z,19.40
2019-01-25T22:45:27.341Z,19.37
2019-01-25T22:47:57.431Z,17.77
2019-01-25T22:50:28.173Z,18.20
2019-01-25T22:52:57.126Z,19.73
2019-01-25T22:55:26.532Z,19.83
2019-01-25T22:57:55.416Z,20.23
2019-01-25T23:00:51.438Z,19.80
2019-01-25T23:03:38.454Z,19.10
2019-01-25T23:06:18.813Z,16.80
2019-01-25T23:08:47.705Z,20.63
2019-01-25T23:11:16.594Z,19.40
2019-01-25T23:13:45.484Z,19.83
2019-01-25T23:16:14.375Z,17.30
2019-01-25T23:18:43.266Z,19.27
2019-01-25T23:21:12.156Z,21.47
2019-01-25T23:23:41.047Z,20.63
2019-01-25T23:26:09.937Z,19.70
2019-01-25T23:28:38.827Z,18.93
2019-01-25T23:31:07.717Z,19.03
2019-01-25T23:33:36.607Z,21.33
2019-01-25T23:36:05.806Z,19.60
2019-01-25T23:38:34.797Z,18.37
2019-01-25T23:41:03.789Z,22.83
2019-01-25T23:43:32.784Z,22.37
2019-01-25T23:46:01.673Z,24.40
2019-01-25T23:48:30.563Z,18.00
2019-01-25T23:50:59.467Z,25.13
2019-01-25T23:53:28.445Z,23.20
2019-01-25T23:55:57.340Z,20.20
2019-01-25T23:58:26.331Z,21.43
